sensor_id;sensor_type;location;lat;lon;timestamp;pressure;altitude;pressure_sealevel;temperature;humidity
50268;BME280;36153;50.960;6.220;2022-11-03T00:00:24;100627.47;;;17.05;47.13
50268;BME280;36153;50.960;6.220;2022-11-03T00:03:26;100623.25;;;16.91;47.54
50268;BME280;36153;50.960;6.220;2022-11-03T00:06:26;100619.50;;;17.10;47.05
50268;BME280;36153;50.960;6.220;2022-11-03T00:09:26;100610.69;;;17.14;46.99
50268;BME280;36153;50.960;6.220;2022-11-03T00:12:27;100603.69;;;17.13;46.96
50268;BME280;36153;50.960;6.220;2022-11-03T00:15:27;100601.00;;;17.18;46.85
50268;BME280;36153;50.960;6.220;2022-11-03T00:18:27;100602.88;;;17.08;46.74
50268;BME280;36153;50.960;6.220;2022-11-03T00:21:28;100598.38;;;17.16;46.32
50268;BME280;36153;50.960;6.220;2022-11-03T00:24:29;100595.81;;;17.13;46.41
50268;BME280;36153;50.960;6.220;2022-11-03T00:27:29;100595.63;;;17.27;46.13
50268;BME280;36153;50.960;6.220;2022-11-03T00:30:30;100598.34;;;17.19;46.39
50268;BME280;36153;50.960;6.220;2022-11-03T00:33:31;100585.19;;;17.19;46.03
50268;BME280;36153;50.960;6.220;2022-11-03T00:36:37;100584.31;;;17.17;46.01
50268;BME280;36153;50.960;6.220;2022-11-03T00:39:38;100580.81;;;17.18;46.07
50268;BME280;36153;50.960;6.220;2022-11-03T00:42:38;100582.56;;;17.19;45.70
50268;BME280;36153;50.960;6.220;2022-11-03T00:45:39;100576.38;;;17.22;45.97
50268;BME280;36153;50.960;6.220;2022-11-03T00:48:40;100576.34;;;17.23;45.93
50268;BME280;36153;50.960;6.220;2022-11-03T00:51:40;100580.03;;;17.10;46.38
50268;BME280;36153;50.960;6.220;2022-11-03T00:54:41;100565.13;;;17.12;46.06
50268;BME280;36153;50.960;6.220;2022-11-03T00:57:41;100559.91;;;17.09;46.03
50268;BME280;36153;50.960;6.220;2022-11-03T01:00:41;100564.25;;;17.13;46.05
50268;BME280;36153;50.960;6.220;2022-11-03T01:03:44;100563.50;;;17.02;46.33
50268;BME280;36153;50.960;6.220;2022-11-03T01:07:05;100557.38;;;17.01;46.50
50268;BME280;36153;50.960;6.220;2022-11-03T01:10:05;100545.97;;;17.04;46.17
50268;BME280;36153;50.960;6.220;2022-11-03T01:13:06;100546.00;;;17.01;46.03
50268;BME280;36153;50.960;6.220;2022-11-03T01:16:06;100539.97;;;16.94;46.46
50268;BME280;36153;50.960;6.220;2022-11-03T01:19:07;100547.78;;;16.99;46.57
50268;BME280;36153;50.960;6.220;2022-11-03T01:22:08;100530.34;;;16.92;46.67
50268;BME280;36153;50.960;6.220;2022-11-03T01:25:09;100532.09;;;16.93;46.47
50268;BME280;36153;50.960;6.220;2022-11-03T01:28:09;100528.50;;;17.00;46.00
50268;BME280;36153;50.960;6.220;2022-11-03T01:31:13;100520.56;;;17.01;46.60
50268;BME280;36153;50.960;6.220;2022-11-03T01:34:15;100526.75;;;16.99;46.64
50268;BME280;36153;50.960;6.220;2022-11-03T01:37:16;100518.81;;;17.00;46.56
50268;BME280;36153;50.960;6.220;2022-11-03T01:40:16;100509.31;;;16.92;46.68
50268;BME280;36153;50.960;6.220;2022-11-03T01:43:22;100508.47;;;16.91;46.75
50268;BME280;36153;50.960;6.220;2022-11-03T01:46:25;100497.06;;;16.91;46.71
50268;BME280;36153;50.960;6.220;2022-11-03T01:52:43;100486.59;;;16.84;46.83
50268;BME280;36153;50.960;6.220;2022-11-03T01:55:47;100474.38;;;16.82;47.14
50268;BME280;36153;50.960;6.220;2022-11-03T01:58:52;100476.91;;;16.88;46.93
50268;BME280;36153;50.960;6.220;2022-11-03T02:01:53;100476.91;;;16.88;47.12
50268;BME280;36153;50.960;6.220;2022-11-03T02:04:57;100464.06;;;16.68;47.53
50268;BME280;36153;50.960;6.220;2022-11-03T02:08:04;100469.19;;;16.77;47.38
50268;BME280;36153;50.960;6.220;2022-11-03T02:11:07;100462.25;;;16.70;48.02
50268;BME280;36153;50.960;6.220;2022-11-03T02:14:26;100454.25;;;16.79;47.55
50268;BME280;36153;50.960;6.220;2022-11-03T02:17:27;100451.84;;;16.65;47.66
50268;BME280;36153;50.960;6.220;2022-11-03T02:20:29;100454.34;;;16.75;48.09
50268;BME280;36153;50.960;6.220;2022-11-03T02:26:47;100441.88;;;16.87;47.26
50268;BME280;36153;50.960;6.220;2022-11-03T02:29:49;100450.59;;;16.88;47.48
50268;BME280;36153;50.960;6.220;2022-11-03T02:32:55;100433.97;;;16.87;47.56
50268;BME280;36153;50.960;6.220;2022-11-03T02:36:14;100425.41;;;16.75;47.94
50268;BME280;36153;50.960;6.220;2022-11-03T02:39:24;100424.31;;;16.91;47.63
50268;BME280;36153;50.960;6.220;2022-11-03T02:42:26;100414.78;;;16.82;47.79
50268;BME280;36153;50.960;6.220;2022-11-03T02:45:28;100417.28;;;16.92;47.46
50268;BME280;36153;50.960;6.220;2022-11-03T02:48:29;100411.19;;;16.89;47.88
50268;BME280;36153;50.960;6.220;2022-11-03T02:51:29;100409.34;;;16.95;48.02
50268;BME280;36153;50.960;6.220;2022-11-03T02:54:42;100397.22;;;16.84;48.14
50268;BME280;36153;50.960;6.220;2022-11-03T02:57:49;100391.03;;;16.90;48.34
50268;BME280;36153;50.960;6.220;2022-11-03T03:00:57;100397.00;;;17.00;48.13
50268;BME280;36153;50.960;6.220;2022-11-03T03:04:05;100397.16;;;16.87;48.41
50268;BME280;36153;50.960;6.220;2022-11-03T03:07:11;100397.09;;;16.94;48.30
50268;BME280;36153;50.960;6.220;2022-11-03T03:10:19;100389.94;;;17.02;48.41
50268;BME280;36153;50.960;6.220;2022-11-03T03:13:21;100382.97;;;17.01;48.50
50268;BME280;36153;50.960;6.220;2022-11-03T03:16:25;100383.13;;;16.92;48.97
50268;BME280;36153;50.960;6.220;2022-11-03T03:23:12;100368.38;;;16.80;49.73
50268;BME280;36153;50.960;6.220;2022-11-03T03:26:28;100369.94;;;16.93;49.50
50268;BME280;36153;50.960;6.220;2022-11-03T03:29:37;100364.66;;;16.95;49.65
50268;BME280;36153;50.960;6.220;2022-11-03T03:32:50;100369.84;;;16.99;49.71
50268;BME280;36153;50.960;6.220;2022-11-03T03:35:52;100358.63;;;16.86;50.26
50268;BME280;36153;50.960;6.220;2022-11-03T03:38:59;100351.72;;;16.81;50.65
50268;BME280;36153;50.960;6.220;2022-11-03T03:42:02;100354.22;;;16.90;50.53
50268;BME280;36153;50.960;6.220;2022-11-03T03:45:06;100349.00;;;16.88;50.67
50268;BME280;36153;50.960;6.220;2022-11-03T03:48:07;100343.78;;;16.82;50.92
50268;BME280;36153;50.960;6.220;2022-11-03T03:51:09;100350.59;;;16.97;50.41
50268;BME280;36153;50.960;6.220;2022-11-03T03:54:10;100341.88;;;16.95;50.70
50268;BME280;36153;50.960;6.220;2022-11-03T03:57:16;100345.22;;;17.03;50.70
50268;BME280;36153;50.960;6.220;2022-11-03T04:00:17;100345.94;;;17.13;50.41
50268;BME280;36153;50.960;6.220;2022-11-03T04:03:20;100339.03;;;17.06;50.50
50268;BME280;36153;50.960;6.220;2022-11-03T04:06:21;100334.84;;;16.96;51.13
50268;BME280;36153;50.960;6.220;2022-11-03T04:09:21;100332.06;;;17.03;50.92
50268;BME280;36153;50.960;6.220;2022-11-03T04:12:22;100327.66;;;17.05;51.08
50268;BME280;36153;50.960;6.220;2022-11-03T04:15:41;100318.97;;;17.00;51.39
50268;BME280;36153;50.960;6.220;2022-11-03T04:18:50;100315.53;;;16.98;51.34
50268;BME280;36153;50.960;6.220;2022-11-03T04:22:09;100307.47;;;17.06;51.07
50268;BME280;36153;50.960;6.220;2022-11-03T04:25:15;100307.53;;;17.03;51.46
50268;BME280;36153;50.960;6.220;2022-11-03T04:28:16;100310.16;;;17.03;51.43
50268;BME280;36153;50.960;6.220;2022-11-03T04:31:17;100304.69;;;17.15;50.78
50268;BME280;36153;50.960;6.220;2022-11-03T04:34:18;100301.19;;;17.15;51.52
50268;BME280;36153;50.960;6.220;2022-11-03T04:37:18;100301.03;;;17.22;50.73
50268;BME280;36153;50.960;6.220;2022-11-03T04:40:18;100292.34;;;17.17;51.08
50268;BME280;36153;50.960;6.220;2022-11-03T04:43:20;100292.34;;;17.17;51.48
50268;BME280;36153;50.960;6.220;2022-11-03T04:46:27;100295.59;;;17.32;50.89
50268;BME280;36153;50.960;6.220;2022-11-03T04:49:27;100285.72;;;17.43;50.87
50268;BME280;36153;50.960;6.220;2022-11-03T04:52:28;100287.84;;;17.24;51.16
50268;BME280;36153;50.960;6.220;2022-11-03T04:55:29;100278.22;;;17.25;51.19
50268;BME280;36153;50.960;6.220;2022-11-03T04:58:33;100268.75;;;17.14;51.44
50268;BME280;36153;50.960;6.220;2022-11-03T05:01:33;100268.59;;;17.23;51.25
50268;BME280;36153;50.960;6.220;2022-11-03T05:04:34;100261.50;;;17.26;51.64
50268;BME280;36153;50.960;6.220;2022-11-03T05:07:35;100257.09;;;17.28;51.40
50268;BME280;36153;50.960;6.220;2022-11-03T05:10:35;100249.19;;;17.29;51.42
50268;BME280;36153;50.960;6.220;2022-11-03T05:13:35;100242.38;;;17.17;51.54
50268;BME280;36153;50.960;6.220;2022-11-03T05:16:36;100236.56;;;17.45;50.80
50268;BME280;36153;50.960;6.220;2022-11-03T05:19:37;100234.94;;;17.38;50.95
50268;BME280;36153;50.960;6.220;2022-11-03T05:22:38;100223.91;;;17.22;51.32
50268;BME280;36153;50.960;6.220;2022-11-03T05:25:47;100224.47;;;17.36;51.19
50268;BME280;36153;50.960;6.220;2022-11-03T05:28:54;100211.34;;;17.35;51.03
50268;BME280;36153;50.960;6.220;2022-11-03T05:32:00;100202.25;;;17.09;51.75
50268;BME280;36153;50.960;6.220;2022-11-03T05:35:01;100204.97;;;17.45;50.44
50268;BME280;36153;50.960;6.220;2022-11-03T05:38:01;100198.94;;;17.42;50.65
50268;BME280;36153;50.960;6.220;2022-11-03T05:41:12;100194.66;;;17.36;51.05
50268;BME280;36153;50.960;6.220;2022-11-03T05:51:37;100178.19;;;17.28;50.91
50268;BME280;36153;50.960;6.220;2022-11-03T05:54:38;100185.94;;;17.34;50.87
50268;BME280;36153;50.960;6.220;2022-11-03T05:57:39;100193.94;;;17.29;51.13
50268;BME280;36153;50.960;6.220;2022-11-03T06:00:40;100193.84;;;17.32;50.83
50268;BME280;36153;50.960;6.220;2022-11-03T06:03:41;100186.00;;;17.31;50.76
50268;BME280;36153;50.960;6.220;2022-11-03T06:06:41;100190.22;;;17.38;50.51
50268;BME280;36153;50.960;6.220;2022-11-03T06:09:41;100175.66;;;17.21;50.88
50268;BME280;36153;50.960;6.220;2022-11-03T06:12:43;100173.03;;;17.21;51.01
50268;BME280;36153;50.960;6.220;2022-11-03T06:15:45;100177.88;;;17.42;50.38
50268;BME280;36153;50.960;6.220;2022-11-03T06:18:46;100168.59;;;17.25;50.74
50268;BME280;36153;50.960;6.220;2022-11-03T06:21:48;100151.03;;;17.26;50.36
50268;BME280;36153;50.960;6.220;2022-11-03T06:24:50;100148.84;;;17.05;51.24
50268;BME280;36153;50.960;6.220;2022-11-03T06:27:52;100140.81;;;17.13;51.22
50268;BME280;36153;50.960;6.220;2022-11-03T06:30:54;100136.50;;;17.09;50.82
50268;BME280;36153;50.960;6.220;2022-11-03T06:33:56;100120.75;;;17.06;51.24
50268;BME280;36153;50.960;6.220;2022-11-03T06:36:58;100120.72;;;17.09;50.98
50268;BME280;36153;50.960;6.220;2022-11-03T06:43:18;100127.44;;;17.22;50.85
50268;BME280;36153;50.960;6.220;2022-11-03T06:46:20;100123.34;;;17.09;51.53
50268;BME280;36153;50.960;6.220;2022-11-03T06:49:30;100119.91;;;17.05;51.69
50268;BME280;36153;50.960;6.220;2022-11-03T06:52:34;100122.03;;;16.86;52.12
50268;BME280;36153;50.960;6.220;2022-11-03T06:55:36;100111.47;;;16.89;52.15
50268;BME280;36153;50.960;6.220;2022-11-03T06:58:40;100101.66;;;16.98;52.17
50268;BME280;36153;50.960;6.220;2022-11-03T07:01:41;100107.09;;;16.90;51.87
50268;BME280;36153;50.960;6.220;2022-11-03T07:04:41;100105.50;;;16.81;51.97
50268;BME280;36153;50.960;6.220;2022-11-03T07:07:41;100096.94;;;16.71;52.05
50268;BME280;36153;50.960;6.220;2022-11-03T07:10:42;100094.50;;;17.04;51.51
50268;BME280;36153;50.960;6.220;2022-11-03T07:13:43;100099.38;;;17.21;50.57
50268;BME280;36153;50.960;6.220;2022-11-03T07:16:46;100095.31;;;17.08;51.09
50268;BME280;36153;50.960;6.220;2022-11-03T07:19:47;100091.38;;;17.28;50.63
50268;BME280;36153;50.960;6.220;2022-11-03T07:22:48;100091.38;;;17.28;50.73
50268;BME280;36153;50.960;6.220;2022-11-03T07:25:52;100085.19;;;17.30;50.23
50268;BME280;36153;50.960;6.220;2022-11-03T07:28:53;100090.91;;;17.48;49.80
50268;BME280;36153;50.960;6.220;2022-11-03T07:31:56;100092.69;;;17.47;50.05
50268;BME280;36153;50.960;6.220;2022-11-03T07:35:03;100092.81;;;17.41;50.36
50268;BME280;36153;50.960;6.220;2022-11-03T07:38:13;100080.72;;;17.32;50.68
50268;BME280;36153;50.960;6.220;2022-11-03T07:41:21;100083.56;;;17.25;50.78
50268;BME280;36153;50.960;6.220;2022-11-03T07:44:23;100087.19;;;17.19;51.12
50268;BME280;36153;50.960;6.220;2022-11-03T07:47:24;100082.63;;;17.26;51.11
50268;BME280;36153;50.960;6.220;2022-11-03T07:50:26;100082.44;;;17.35;50.53
50268;BME280;36153;50.960;6.220;2022-11-03T07:53:30;100078.53;;;17.51;50.52
50268;BME280;36153;50.960;6.220;2022-11-03T07:56:38;100088.31;;;17.46;50.70
50268;BME280;36153;50.960;6.220;2022-11-03T07:59:41;100081.13;;;17.53;50.70
50268;BME280;36153;50.960;6.220;2022-11-03T08:02:47;100062.06;;;17.43;50.94
50268;BME280;36153;50.960;6.220;2022-11-03T08:05:50;100062.03;;;17.45;50.53
50268;BME280;36153;50.960;6.220;2022-11-03T08:08:50;100063.72;;;17.47;51.13
50268;BME280;36153;50.960;6.220;2022-11-03T08:11:51;100060.88;;;17.56;50.92
50268;BME280;36153;50.960;6.220;2022-11-03T08:14:51;100062.72;;;17.53;51.00
50268;BME280;36153;50.960;6.220;2022-11-03T08:17:51;100056.56;;;17.54;50.85
50268;BME280;36153;50.960;6.220;2022-11-03T08:20:52;100054.31;;;17.73;50.25
50268;BME280;36153;50.960;6.220;2022-11-03T08:23:53;100055.16;;;17.75;50.31
50268;BME280;36153;50.960;6.220;2022-11-03T08:26:53;100044.72;;;17.72;50.41
50268;BME280;36153;50.960;6.220;2022-11-03T08:29:54;100033.78;;;17.87;50.27
50268;BME280;36153;50.960;6.220;2022-11-03T08:32:54;100035.19;;;18.01;50.00
50268;BME280;36153;50.960;6.220;2022-11-03T08:35:55;100021.03;;;18.05;49.74
50268;BME280;36153;50.960;6.220;2022-11-03T08:38:55;100027.53;;;17.93;49.80
50268;BME280;36153;50.960;6.220;2022-11-03T08:41:55;100014.06;;;18.04;49.37
50268;BME280;36153;50.960;6.220;2022-11-03T08:44:55;100011.47;;;18.34;47.22
50268;BME280;36153;50.960;6.220;2022-11-03T08:47:56;99996.94;;;18.50;46.17
50268;BME280;36153;50.960;6.220;2022-11-03T08:50:56;99985.78;;;18.72;45.53
50268;BME280;36153;50.960;6.220;2022-11-03T08:53:58;99981.94;;;18.82;44.78
50268;BME280;36153;50.960;6.220;2022-11-03T08:56:58;99987.03;;;18.88;45.03
50268;BME280;36153;50.960;6.220;2022-11-03T08:59:58;99970.16;;;18.94;45.22
50268;BME280;36153;50.960;6.220;2022-11-03T09:02:59;99966.44;;;19.01;45.15
50268;BME280;36153;50.960;6.220;2022-11-03T09:05:59;99958.41;;;19.04;44.89
50268;BME280;36153;50.960;6.220;2022-11-03T09:09:00;99941.69;;;19.05;45.31
50268;BME280;36153;50.960;6.220;2022-11-03T09:12:00;99929.75;;;19.20;44.87
50268;BME280;36153;50.960;6.220;2022-11-03T09:15:00;99929.16;;;19.39;44.98
50268;BME280;36153;50.960;6.220;2022-11-03T09:18:01;99915.06;;;19.38;45.37
50268;BME280;36153;50.960;6.220;2022-11-03T09:21:01;99906.31;;;19.38;45.22
50268;BME280;36153;50.960;6.220;2022-11-03T09:24:02;99896.81;;;19.57;44.14
50268;BME280;36153;50.960;6.220;2022-11-03T09:27:02;99885.78;;;19.46;44.03
50268;BME280;36153;50.960;6.220;2022-11-03T09:30:04;99886.50;;;19.51;44.47
50268;BME280;36153;50.960;6.220;2022-11-03T09:33:05;99884.97;;;19.44;45.40
50268;BME280;36153;50.960;6.220;2022-11-03T09:36:06;99877.38;;;19.35;45.94
50268;BME280;36153;50.960;6.220;2022-11-03T09:39:06;99877.09;;;19.42;45.93
50268;BME280;36153;50.960;6.220;2022-11-03T09:42:07;99873.72;;;19.39;46.04
50268;BME280;36153;50.960;6.220;2022-11-03T09:45:09;99871.88;;;19.41;46.39
50268;BME280;36153;50.960;6.220;2022-11-03T09:48:10;99853.69;;;19.33;45.82
50268;BME280;36153;50.960;6.220;2022-11-03T09:51:17;99853.28;;;19.44;45.69
50268;BME280;36153;50.960;6.220;2022-11-03T09:54:18;99838.75;;;19.57;45.15
50268;BME280;36153;50.960;6.220;2022-11-03T09:57:19;99831.59;;;19.61;45.32
50268;BME280;36153;50.960;6.220;2022-11-03T10:00:21;99824.44;;;19.39;45.62
50268;BME280;36153;50.960;6.220;2022-11-03T10:03:21;99806.66;;;18.94;46.59
50268;BME280;36153;50.960;6.220;2022-11-03T10:06:22;99807.84;;;18.84;47.03
50268;BME280;36153;50.960;6.220;2022-11-03T10:09:23;99797.16;;;18.88;46.50
50268;BME280;36153;50.960;6.220;2022-11-03T10:12:25;99788.34;;;18.89;46.69
50268;BME280;36153;50.960;6.220;2022-11-03T10:15:27;99780.38;;;18.64;47.69
50268;BME280;36153;50.960;6.220;2022-11-03T10:18:27;99771.09;;;18.79;47.36
50268;BME280;36153;50.960;6.220;2022-11-03T10:21:31;99772.53;;;18.89;47.12
50268;BME280;36153;50.960;6.220;2022-11-03T10:24:37;99762.84;;;18.90;47.11
50268;BME280;36153;50.960;6.220;2022-11-03T10:27:37;99759.03;;;18.99;47.05
50268;BME280;36153;50.960;6.220;2022-11-03T10:30:47;99753.66;;;18.75;47.33
50268;BME280;36153;50.960;6.220;2022-11-03T10:33:54;99746.56;;;18.77;47.67
50268;BME280;36153;50.960;6.220;2022-11-03T10:37:18;99749.69;;;19.14;47.12
50268;BME280;36153;50.960;6.220;2022-11-03T10:40:48;99755.09;;;19.10;47.37
50268;BME280;36153;50.960;6.220;2022-11-03T10:47:42;99755.03;;;19.12;47.42
50268;BME280;36153;50.960;6.220;2022-11-03T10:50:42;99747.63;;;19.22;46.87
50268;BME280;36153;50.960;6.220;2022-11-03T10:53:42;99747.25;;;19.33;46.70
50268;BME280;36153;50.960;6.220;2022-11-03T10:56:44;99743.72;;;19.57;46.67
50268;BME280;36153;50.960;6.220;2022-11-03T10:59:46;99737.50;;;19.58;46.50
50268;BME280;36153;50.960;6.220;2022-11-03T11:02:48;99728.78;;;19.56;46.42
50268;BME280;36153;50.960;6.220;2022-11-03T11:05:49;99708.06;;;19.45;46.78
50268;BME280;36153;50.960;6.220;2022-11-03T11:08:51;99705.28;;;19.50;46.28
50268;BME280;36153;50.960;6.220;2022-11-03T11:12:12;99701.41;;;19.59;45.89
50268;BME280;36153;50.960;6.220;2022-11-03T11:43:31;99633.34;;;19.89;45.25
50268;BME280;36153;50.960;6.220;2022-11-03T11:46:41;99624.38;;;19.93;45.19
50268;BME280;36153;50.960;6.220;2022-11-03T11:49:41;99616.38;;;19.95;45.65
50268;BME280;36153;50.960;6.220;2022-11-03T11:52:55;99610.78;;;20.23;44.81
50268;BME280;36153;50.960;6.220;2022-11-03T11:55:59;99597.34;;;20.29;44.29
50268;BME280;36153;50.960;6.220;2022-11-03T11:59:00;99590.09;;;20.33;44.03
50268;BME280;36153;50.960;6.220;2022-11-03T12:02:01;99594.09;;;20.62;43.95
50268;BME280;36153;50.960;6.220;2022-11-03T12:05:02;99583.03;;;20.54;43.76
50268;BME280;36153;50.960;6.220;2022-11-03T12:08:16;99568.13;;;20.33;43.93
50268;BME280;36153;50.960;6.220;2022-11-03T12:11:44;99555.38;;;20.22;43.53
50268;BME280;36153;50.960;6.220;2022-11-03T12:14:45;99543.16;;;20.19;43.43
50268;BME280;36153;50.960;6.220;2022-11-03T12:17:45;99538.38;;;20.07;43.57
50268;BME280;36153;50.960;6.220;2022-11-03T12:20:45;99530.00;;;19.97;43.83
50268;BME280;36153;50.960;6.220;2022-11-03T12:23:46;99527.56;;;19.92;44.38
50268;BME280;36153;50.960;6.220;2022-11-03T12:26:47;99518.00;;;19.90;44.05
50268;BME280;36153;50.960;6.220;2022-11-03T12:29:47;99518.88;;;19.90;44.57
50268;BME280;36153;50.960;6.220;2022-11-03T12:32:48;99508.78;;;19.78;44.34
50268;BME280;36153;50.960;6.220;2022-11-03T12:35:48;99503.13;;;19.87;43.87
50268;BME280;36153;50.960;6.220;2022-11-03T12:38:48;99498.91;;;19.83;44.74
50268;BME280;36153;50.960;6.220;2022-11-03T12:41:49;99474.00;;;19.68;44.99
50268;BME280;36153;50.960;6.220;2022-11-03T12:44:49;99468.22;;;19.79;45.42
50268;BME280;36153;50.960;6.220;2022-11-03T12:47:50;99463.66;;;19.84;45.09
50268;BME280;36153;50.960;6.220;2022-11-03T12:50:50;99448.88;;;19.80;45.12
50268;BME280;36153;50.960;6.220;2022-11-03T12:53:51;99438.06;;;19.86;44.85
50268;BME280;36153;50.960;6.220;2022-11-03T12:56:51;99434.75;;;19.81;45.08
50268;BME280;36153;50.960;6.220;2022-11-03T12:59:52;99419.81;;;19.80;44.85
50268;BME280;36153;50.960;6.220;2022-11-03T13:02:52;99397.56;;;19.86;44.01
50268;BME280;36153;50.960;6.220;2022-11-03T13:05:54;99386.59;;;19.95;44.67
50268;BME280;36153;50.960;6.220;2022-11-03T13:08:55;99390.44;;;19.88;44.81
50268;BME280;36153;50.960;6.220;2022-11-03T13:11:55;99384.19;;;19.90;44.57
50268;BME280;36153;50.960;6.220;2022-11-03T13:15:14;99367.66;;;19.85;44.46
50268;BME280;36153;50.960;6.220;2022-11-03T13:18:15;99364.09;;;19.86;44.46
50268;BME280;36153;50.960;6.220;2022-11-03T13:21:15;99363.53;;;19.80;44.17
50268;BME280;36153;50.960;6.220;2022-11-03T13:24:16;99362.91;;;19.93;43.83
50268;BME280;36153;50.960;6.220;2022-11-03T13:27:16;99350.19;;;20.02;44.34
50268;BME280;36153;50.960;6.220;2022-11-03T13:30:16;99346.78;;;19.79;44.68
50268;BME280;36153;50.960;6.220;2022-11-03T13:33:19;99343.25;;;19.80;43.95
50268;BME280;36153;50.960;6.220;2022-11-03T13:36:19;99333.75;;;19.55;44.94
50268;BME280;36153;50.960;6.220;2022-11-03T13:39:20;99330.09;;;19.58;45.04
50268;BME280;36153;50.960;6.220;2022-11-03T13:42:20;99313.50;;;19.56;44.89
50268;BME280;36153;50.960;6.220;2022-11-03T13:45:20;99310.78;;;19.57;44.72
50268;BME280;36153;50.960;6.220;2022-11-03T13:48:21;99302.22;;;19.52;45.03
50268;BME280;36153;50.960;6.220;2022-11-03T13:51:21;99297.28;;;19.44;45.34
50268;BME280;36153;50.960;6.220;2022-11-03T13:54:22;99293.69;;;19.45;46.24
50268;BME280;36153;50.960;6.220;2022-11-03T13:57:22;99289.03;;;19.32;46.52
50268;BME280;36153;50.960;6.220;2022-11-03T14:00:22;99287.41;;;19.29;46.50
50268;BME280;36153;50.960;6.220;2022-11-03T14:03:22;99292.16;;;19.21;46.93
50268;BME280;36153;50.960;6.220;2022-11-03T14:06:23;99283.66;;;19.14;47.26
50268;BME280;36153;50.960;6.220;2022-11-03T14:09:24;99302.22;;;19.32;47.14
50268;BME280;36153;50.960;6.220;2022-11-03T14:12:24;99297.97;;;19.29;47.23
50268;BME280;36153;50.960;6.220;2022-11-03T14:15:30;99300.00;;;19.22;47.74
50268;BME280;36153;50.960;6.220;2022-11-03T14:18:31;99298.28;;;19.01;49.01
50268;BME280;36153;50.960;6.220;2022-11-03T14:21:31;99298.50;;;18.74;49.55
50268;BME280;36153;50.960;6.220;2022-11-03T14:24:32;99301.91;;;18.76;49.37
50268;BME280;36153;50.960;6.220;2022-11-03T14:27:32;99299.34;;;18.74;47.99
50268;BME280;36153;50.960;6.220;2022-11-03T14:30:32;99293.28;;;19.15;46.81
50268;BME280;36153;50.960;6.220;2022-11-03T14:33:33;99286.31;;;19.14;46.77
50268;BME280;36153;50.960;6.220;2022-11-03T14:36:33;99288.78;;;19.17;47.72
50268;BME280;36153;50.960;6.220;2022-11-03T14:39:34;99279.69;;;19.04;48.87
50268;BME280;36153;50.960;6.220;2022-11-03T14:42:37;99270.59;;;18.90;48.99
50268;BME280;36153;50.960;6.220;2022-11-03T14:45:37;99264.41;;;18.91;49.33
50268;BME280;36153;50.960;6.220;2022-11-03T14:48:38;99271.59;;;18.88;49.38
50268;BME280;36153;50.960;6.220;2022-11-03T14:51:38;99282.06;;;18.89;49.59
50268;BME280;36153;50.960;6.220;2022-11-03T14:54:38;99266.88;;;18.74;50.09
50268;BME280;36153;50.960;6.220;2022-11-03T14:57:39;99245.78;;;18.74;49.88
50268;BME280;36153;50.960;6.220;2022-11-03T15:00:39;99244.56;;;18.60;50.74
50268;BME280;36153;50.960;6.220;2022-11-03T15:03:39;99234.84;;;18.63;50.64
50268;BME280;36153;50.960;6.220;2022-11-03T15:06:40;99226.63;;;18.48;50.74
50268;BME280;36153;50.960;6.220;2022-11-03T15:09:40;99223.47;;;18.60;50.62
50268;BME280;36153;50.960;6.220;2022-11-03T15:12:41;99227.31;;;18.53;50.29
50268;BME280;36153;50.960;6.220;2022-11-03T15:15:41;99220.59;;;18.46;50.58
50268;BME280;36153;50.960;6.220;2022-11-03T15:18:42;99216.09;;;18.48;50.63
50268;BME280;36153;50.960;6.220;2022-11-03T15:21:43;99220.16;;;18.35;50.93
50268;BME280;36153;50.960;6.220;2022-11-03T15:24:43;99214.91;;;18.13;51.24
50268;BME280;36153;50.960;6.220;2022-11-03T15:27:44;99210.94;;;18.45;50.83
50268;BME280;36153;50.960;6.220;2022-11-03T15:30:44;99206.75;;;18.19;51.15
50268;BME280;36153;50.960;6.220;2022-11-03T15:33:44;99193.97;;;18.32;51.21
50268;BME280;36153;50.960;6.220;2022-11-03T15:36:45;99184.94;;;18.37;51.08
50268;BME280;36153;50.960;6.220;2022-11-03T15:39:45;99183.66;;;18.25;50.74
50268;BME280;36153;50.960;6.220;2022-11-03T15:42:45;99172.09;;;18.07;51.58
50268;BME280;36153;50.960;6.220;2022-11-03T15:45:46;99168.75;;;18.24;51.53
50268;BME280;36153;50.960;6.220;2022-11-03T15:48:46;99162.47;;;18.49;50.29
50268;BME280;36153;50.960;6.220;2022-11-03T15:51:48;99146.72;;;18.27;51.23
50268;BME280;36153;50.960;6.220;2022-11-03T15:54:48;99137.28;;;18.21;51.17
50268;BME280;36153;50.960;6.220;2022-11-03T15:57:49;99137.69;;;18.33;51.45
50268;BME280;36153;50.960;6.220;2022-11-03T16:00:49;99136.91;;;18.31;51.22
50268;BME280;36153;50.960;6.220;2022-11-03T16:03:50;99124.78;;;18.27;51.73
50268;BME280;36153;50.960;6.220;2022-11-03T16:06:50;99129.78;;;18.33;52.10
50268;BME280;36153;50.960;6.220;2022-11-03T16:09:51;99129.84;;;18.11;52.12
50268;BME280;36153;50.960;6.220;2022-11-03T16:12:51;99128.41;;;18.24;52.07
50268;BME280;36153;50.960;6.220;2022-11-03T16:15:51;99126.63;;;18.24;52.02
50268;BME280;36153;50.960;6.220;2022-11-03T16:18:54;99132.25;;;17.95;52.29
50268;BME280;36153;50.960;6.220;2022-11-03T16:21:55;99131.41;;;18.15;52.41
50268;BME280;36153;50.960;6.220;2022-11-03T16:24:55;99134.78;;;18.18;52.12
50268;BME280;36153;50.960;6.220;2022-11-03T16:27:56;99123.84;;;18.07;53.03
50268;BME280;36153;50.960;6.220;2022-11-03T16:30:56;99128.22;;;18.08;52.86
50268;BME280;36153;50.960;6.220;2022-11-03T16:33:56;99123.25;;;18.00;52.99
50268;BME280;36153;50.960;6.220;2022-11-03T16:36:58;99125.94;;;17.99;53.29
50268;BME280;36153;50.960;6.220;2022-11-03T16:39:59;99119.03;;;17.96;53.45
50268;BME280;36153;50.960;6.220;2022-11-03T16:43:00;99116.31;;;17.98;53.03
50268;BME280;36153;50.960;6.220;2022-11-03T16:46:01;99111.06;;;17.75;53.11
50268;BME280;36153;50.960;6.220;2022-11-03T16:49:01;99100.09;;;17.86;52.95
50268;BME280;36153;50.960;6.220;2022-11-03T16:52:02;99097.59;;;17.83;53.14